sensor_id;sensor_type;location;lat;lon;timestamp;P1;durP1;ratioP1;P2;durP2;ratioP2
9102;SDS011;4587;51.434;6.788;2023-06-14T00:00:38;8.13;;;5.57;;
9102;SDS011;4587;51.434;6.788;2023-06-14T00:03:08;7.63;;;5.47;;
9102;SDS011;4587;51.434;6.788;2023-06-14T00:05:35;7.73;;;5.10;;
9102;SDS011;4587;51.434;6.788;2023-06-14T00:08:06;8.00;;;5.60;;
9102;SDS011;4587;51.434;6.788;2023-06-14T00:10:33;8.20;;;5.57;;
9102;SDS011;4587;51.434;6.788;2023-06-14T00:13:03;9.47;;;5.20;;
9102;SDS011;4587;51.434;6.788;2023-06-14T00:15:30;9.10;;;5.27;;
9102;SDS011;4587;51.434;6.788;2023-06-14T00:17:56;7.17;;;5.60;;
9102;SDS011;4587;51.434;6.788;2023-06-14T00:20:26;6.90;;;5.50;;
9102;SDS011;4587;51.434;6.788;2023-06-14T00:22:53;9.47;;;5.63;;
9102;SDS011;4587;51.434;6.788;2023-06-14T00:25:20;7.57;;;5.50;;
9102;SDS011;4587;51.434;6.788;2023-06-14T00:27:47;6.23;;;5.27;;
9102;SDS011;4587;51.434;6.788;2023-06-14T00:30:12;8.10;;;5.63;;
9102;SDS011;4587;51.434;6.788;2023-06-14T00:32:38;6.97;;;5.00;;
9102;SDS011;4587;51.434;6.788;2023-06-14T00:35:04;7.90;;;5.70;;
9102;SDS011;4587;51.434;6.788;2023-06-14T00:37:30;6.73;;;5.73;;
9102;SDS011;4587;51.434;6.788;2023-06-14T00:39:55;6.40;;;5.50;;
9102;SDS011;4587;51.434;6.788;2023-06-14T00:42:27;7.23;;;5.80;;
9102;SDS011;4587;51.434;6.788;2023-06-14T00:44:54;7.13;;;5.80;;
9102;SDS011;4587;51.434;6.788;2023-06-14T00:47:20;8.60;;;5.57;;
9102;SDS011;4587;51.434;6.788;2023-06-14T00:49:46;10.93;;;6.17;;
9102;SDS011;4587;51.434;6.788;2023-06-14T00:52:13;7.03;;;5.33;;
9102;SDS011;4587;51.434;6.788;2023-06-14T00:54:40;7.20;;;5.70;;
9102;SDS011;4587;51.434;6.788;2023-06-14T00:57:09;6.70;;;5.33;;
9102;SDS011;4587;51.434;6.788;2023-06-14T00:59:37;6.37;;;5.27;;
9102;SDS011;4587;51.434;6.788;2023-06-14T01:02:06;7.57;;;5.40;;
9102;SDS011;4587;51.434;6.788;2023-06-14T01:04:32;7.23;;;5.00;;
9102;SDS011;4587;51.434;6.788;2023-06-14T01:12:21;7.73;;;5.30;;
9102;SDS011;4587;51.434;6.788;2023-06-14T01:14:56;7.13;;;5.00;;
9102;SDS011;4587;51.434;6.788;2023-06-14T01:17:24;7.83;;;5.33;;
9102;SDS011;4587;51.434;6.788;2023-06-14T01:19:52;6.57;;;4.90;;
9102;SDS011;4587;51.434;6.788;2023-06-14T01:22:23;6.17;;;4.80;;
9102;SDS011;4587;51.434;6.788;2023-06-14T01:24:52;6.03;;;5.17;;
9102;SDS011;4587;51.434;6.788;2023-06-14T01:27:21;6.40;;;4.97;;
9102;SDS011;4587;51.434;6.788;2023-06-14T01:29:49;9.63;;;5.13;;
9102;SDS011;4587;51.434;6.788;2023-06-14T01:32:21;6.30;;;4.83;;
9102;SDS011;4587;51.434;6.788;2023-06-14T01:34:49;9.83;;;4.77;;
9102;SDS011;4587;51.434;6.788;2023-06-14T01:37:15;7.70;;;5.10;;
9102;SDS011;4587;51.434;6.788;2023-06-14T01:39:42;5.97;;;4.50;;
9102;SDS011;4587;51.434;6.788;2023-06-14T01:42:08;9.67;;;4.70;;
9102;SDS011;4587;51.434;6.788;2023-06-14T01:44:36;7.03;;;4.40;;
9102;SDS011;4587;51.434;6.788;2023-06-14T01:47:02;6.47;;;4.70;;
9102;SDS011;4587;51.434;6.788;2023-06-14T01:49:28;5.23;;;4.73;;
9102;SDS011;4587;51.434;6.788;2023-06-14T01:51:53;6.20;;;4.73;;
9102;SDS011;4587;51.434;6.788;2023-06-14T01:54:19;9.80;;;4.63;;
9102;SDS011;4587;51.434;6.788;2023-06-14T01:56:44;5.87;;;4.60;;
9102;SDS011;4587;51.434;6.788;2023-06-14T01:59:10;7.77;;;4.87;;
9102;SDS011;4587;51.434;6.788;2023-06-14T02:01:35;8.77;;;4.87;;
9102;SDS011;4587;51.434;6.788;2023-06-14T02:04:01;8.03;;;4.50;;
9102;SDS011;4587;51.434;6.788;2023-06-14T02:06:27;5.83;;;4.60;;
9102;SDS011;4587;51.434;6.788;2023-06-14T02:08:53;6.10;;;4.33;;
9102;SDS011;4587;51.434;6.788;2023-06-14T02:11:18;7.47;;;4.80;;
9102;SDS011;4587;51.434;6.788;2023-06-14T02:13:44;7.97;;;5.20;;
9102;SDS011;4587;51.434;6.788;2023-06-14T02:16:10;5.07;;;4.10;;
9102;SDS011;4587;51.434;6.788;2023-06-14T02:18:36;7.13;;;4.50;;
9102;SDS011;4587;51.434;6.788;2023-06-14T02:21:01;7.13;;;4.53;;
9102;SDS011;4587;51.434;6.788;2023-06-14T02:23:27;5.70;;;4.80;;
9102;SDS011;4587;51.434;6.788;2023-06-14T02:25:52;9.23;;;4.03;;
9102;SDS011;4587;51.434;6.788;2023-06-14T02:28:18;5.47;;;4.30;;
9102;SDS011;4587;51.434;6.788;2023-06-14T02:30:44;5.87;;;4.90;;
9102;SDS011;4587;51.434;6.788;2023-06-14T02:33:09;6.07;;;4.57;;
9102;SDS011;4587;51.434;6.788;2023-06-14T02:35:37;8.57;;;4.73;;
9102;SDS011;4587;51.434;6.788;2023-06-14T02:38:03;6.43;;;4.37;;
9102;SDS011;4587;51.434;6.788;2023-06-14T02:40:29;6.57;;;4.50;;
9102;SDS011;4587;51.434;6.788;2023-06-14T02:42:54;6.63;;;4.40;;
9102;SDS011;4587;51.434;6.788;2023-06-14T02:45:20;7.67;;;4.20;;
9102;SDS011;4587;51.434;6.788;2023-06-14T02:47:46;5.63;;;4.27;;
9102;SDS011;4587;51.434;6.788;2023-06-14T02:50:11;5.33;;;4.70;;
9102;SDS011;4587;51.434;6.788;2023-06-14T02:52:37;9.47;;;4.40;;
9102;SDS011;4587;51.434;6.788;2023-06-14T02:55:03;9.43;;;4.67;;
9102;SDS011;4587;51.434;6.788;2023-06-14T02:57:29;8.20;;;4.50;;
9102;SDS011;4587;51.434;6.788;2023-06-14T02:59:55;4.90;;;4.27;;
9102;SDS011;4587;51.434;6.788;2023-06-14T03:02:20;4.67;;;4.27;;
9102;SDS011;4587;51.434;6.788;2023-06-14T03:04:46;7.03;;;4.40;;
9102;SDS011;4587;51.434;6.788;2023-06-14T03:07:11;5.47;;;4.30;;
9102;SDS011;4587;51.434;6.788;2023-06-14T03:09:37;5.20;;;3.90;;
9102;SDS011;4587;51.434;6.788;2023-06-14T03:12:04;6.47;;;4.10;;
9102;SDS011;4587;51.434;6.788;2023-06-14T03:14:32;9.37;;;4.40;;
9102;SDS011;4587;51.434;6.788;2023-06-14T03:16:57;5.60;;;4.30;;
9102;SDS011;4587;51.434;6.788;2023-06-14T03:19:23;4.80;;;4.10;;
9102;SDS011;4587;51.434;6.788;2023-06-14T03:21:51;8.00;;;4.47;;
9102;SDS011;4587;51.434;6.788;2023-06-14T03:24:17;5.70;;;4.10;;
9102;SDS011;4587;51.434;6.788;2023-06-14T03:26:42;4.83;;;3.87;;
9102;SDS011;4587;51.434;6.788;2023-06-14T03:29:08;5.63;;;4.33;;
9102;SDS011;4587;51.434;6.788;2023-06-14T03:31:34;6.40;;;4.20;;
9102;SDS011;4587;51.434;6.788;2023-06-14T03:34:00;6.57;;;4.13;;
9102;SDS011;4587;51.434;6.788;2023-06-14T03:36:26;6.73;;;4.10;;
9102;SDS011;4587;51.434;6.788;2023-06-14T03:38:52;7.07;;;3.90;;
9102;SDS011;4587;51.434;6.788;2023-06-14T03:41:18;5.10;;;3.90;;
9102;SDS011;4587;51.434;6.788;2023-06-14T03:43:44;8.33;;;4.20;;
9102;SDS011;4587;51.434;6.788;2023-06-14T03:46:10;5.00;;;3.93;;
9102;SDS011;4587;51.434;6.788;2023-06-14T03:48:35;8.80;;;4.00;;
9102;SDS011;4587;51.434;6.788;2023-06-14T03:51:01;5.83;;;3.80;;
9102;SDS011;4587;51.434;6.788;2023-06-14T03:53:27;6.43;;;3.70;;
9102;SDS011;4587;51.434;6.788;2023-06-14T03:55:54;5.03;;;4.03;;
9102;SDS011;4587;51.434;6.788;2023-06-14T03:58:19;4.37;;;3.57;;
9102;SDS011;4587;51.434;6.788;2023-06-14T04:00:45;6.80;;;3.77;;
9102;SDS011;4587;51.434;6.788;2023-06-14T04:03:11;5.60;;;4.00;;
9102;SDS011;4587;51.434;6.788;2023-06-14T04:05:38;5.50;;;3.80;;
9102;SDS011;4587;51.434;6.788;2023-06-14T04:08:07;5.80;;;3.97;;
9102;SDS011;4587;51.434;6.788;2023-06-14T04:10:34;8.57;;;4.00;;
9102;SDS011;4587;51.434;6.788;2023-06-14T04:12:59;6.00;;;4.00;;
9102;SDS011;4587;51.434;6.788;2023-06-14T04:15:25;8.40;;;3.67;;
9102;SDS011;4587;51.434;6.788;2023-06-14T04:17:53;8.37;;;3.93;;
9102;SDS011;4587;51.434;6.788;2023-06-14T04:20:22;4.60;;;3.40;;
9102;SDS011;4587;51.434;6.788;2023-06-14T04:22:49;7.10;;;3.47;;
9102;SDS011;4587;51.434;6.788;2023-06-14T04:25:15;8.17;;;3.80;;
9102;SDS011;4587;51.434;6.788;2023-06-14T04:27:41;4.50;;;3.40;;
9102;SDS011;4587;51.434;6.788;2023-06-14T04:30:07;3.87;;;3.20;;
9102;SDS011;4587;51.434;6.788;2023-06-14T04:32:33;6.00;;;3.80;;
9102;SDS011;4587;51.434;6.788;2023-06-14T04:35:03;5.17;;;3.33;;
9102;SDS011;4587;51.434;6.788;2023-06-14T04:37:30;5.23;;;3.23;;
9102;SDS011;4587;51.434;6.788;2023-06-14T04:39:55;4.50;;;3.60;;
9102;SDS011;4587;51.434;6.788;2023-06-14T04:42:22;4.07;;;3.37;;
9102;SDS011;4587;51.434;6.788;2023-06-14T04:44:56;4.40;;;3.60;;
9102;SDS011;4587;51.434;6.788;2023-06-14T04:47:22;5.47;;;3.60;;
9102;SDS011;4587;51.434;6.788;2023-06-14T04:49:50;4.47;;;3.50;;
9102;SDS011;4587;51.434;6.788;2023-06-14T04:52:17;5.77;;;3.60;;
9102;SDS011;4587;51.434;6.788;2023-06-14T04:54:45;6.30;;;3.87;;
9102;SDS011;4587;51.434;6.788;2023-06-14T04:57:11;5.43;;;3.70;;
9102;SDS011;4587;51.434;6.788;2023-06-14T04:59:39;6.77;;;3.97;;
9102;SDS011;4587;51.434;6.788;2023-06-14T05:02:05;6.27;;;3.93;;
9102;SDS011;4587;51.434;6.788;2023-06-14T05:04:31;7.07;;;3.87;;
9102;SDS011;4587;51.434;6.788;2023-06-14T05:06:57;4.80;;;3.63;;
9102;SDS011;4587;51.434;6.788;2023-06-14T05:09:23;5.70;;;3.80;;
9102;SDS011;4587;51.434;6.788;2023-06-14T05:11:49;5.30;;;3.83;;
9102;SDS011;4587;51.434;6.788;2023-06-14T05:14:15;4.17;;;3.53;;
9102;SDS011;4587;51.434;6.788;2023-06-14T05:16:41;5.20;;;3.60;;
9102;SDS011;4587;51.434;6.788;2023-06-14T05:19:07;8.43;;;4.00;;
9102;SDS011;4587;51.434;6.788;2023-06-14T05:21:33;8.60;;;4.20;;
9102;SDS011;4587;51.434;6.788;2023-06-14T05:24:00;10.23;;;3.83;;
9102;SDS011;4587;51.434;6.788;2023-06-14T05:26:25;5.63;;;3.93;;
9102;SDS011;4587;51.434;6.788;2023-06-14T05:28:55;9.20;;;3.67;;
9102;SDS011;4587;51.434;6.788;2023-06-14T05:31:21;6.83;;;3.70;;
9102;SDS011;4587;51.434;6.788;2023-06-14T05:33:48;8.07;;;3.60;;
9102;SDS011;4587;51.434;6.788;2023-06-14T05:36:14;5.67;;;3.30;;
9102;SDS011;4587;51.434;6.788;2023-06-14T05:38:40;4.77;;;3.73;;
9102;SDS011;4587;51.434;6.788;2023-06-14T05:41:05;4.57;;;3.40;;
9102;SDS011;4587;51.434;6.788;2023-06-14T05:43:31;5.80;;;3.30;;
9102;SDS011;4587;51.434;6.788;2023-06-14T05:45:57;8.00;;;3.37;;
9102;SDS011;4587;51.434;6.788;2023-06-14T05:48:22;4.30;;;3.20;;
9102;SDS011;4587;51.434;6.788;2023-06-14T05:50:48;8.53;;;3.60;;
9102;SDS011;4587;51.434;6.788;2023-06-14T05:53:13;5.53;;;3.17;;
9102;SDS011;4587;51.434;6.788;2023-06-14T05:55:39;10.87;;;3.50;;
9102;SDS011;4587;51.434;6.788;2023-06-14T05:58:05;5.00;;;3.33;;
9102;SDS011;4587;51.434;6.788;2023-06-14T06:00:31;7.57;;;3.73;;
9102;SDS011;4587;51.434;6.788;2023-06-14T06:02:56;5.43;;;3.37;;
9102;SDS011;4587;51.434;6.788;2023-06-14T06:05:22;7.03;;;3.67;;
9102;SDS011;4587;51.434;6.788;2023-06-14T06:07:48;3.40;;;3.10;;
9102;SDS011;4587;51.434;6.788;2023-06-14T06:10:14;9.53;;;3.80;;
9102;SDS011;4587;51.434;6.788;2023-06-14T06:12:41;8.40;;;3.47;;
9102;SDS011;4587;51.434;6.788;2023-06-14T06:15:06;6.57;;;3.43;;
9102;SDS011;4587;51.434;6.788;2023-06-14T06:17:32;8.20;;;3.37;;
9102;SDS011;4587;51.434;6.788;2023-06-14T06:19:58;8.90;;;3.73;;
9102;SDS011;4587;51.434;6.788;2023-06-14T06:22:24;8.33;;;3.57;;
9102;SDS011;4587;51.434;6.788;2023-06-14T06:24:50;7.30;;;3.60;;
9102;SDS011;4587;51.434;6.788;2023-06-14T06:27:15;6.70;;;3.43;;
9102;SDS011;4587;51.434;6.788;2023-06-14T06:29:42;5.33;;;2.90;;
9102;SDS011;4587;51.434;6.788;2023-06-14T06:32:08;5.07;;;3.33;;
9102;SDS011;4587;51.434;6.788;2023-06-14T06:34:34;6.33;;;3.10;;
9102;SDS011;4587;51.434;6.788;2023-06-14T06:37:02;6.63;;;3.10;;
9102;SDS011;4587;51.434;6.788;2023-06-14T06:39:27;4.40;;;2.90;;
9102;SDS011;4587;51.434;6.788;2023-06-14T06:41:53;5.18;;;3.03;;
9102;SDS011;4587;51.434;6.788;2023-06-14T06:44:18;5.50;;;3.00;;
9102;SDS011;4587;51.434;6.788;2023-06-14T06:46:44;8.75;;;3.13;;
9102;SDS011;4587;51.434;6.788;2023-06-14T06:49:10;4.45;;;2.58;;
9102;SDS011;4587;51.434;6.788;2023-06-14T06:51:36;4.90;;;2.67;;
9102;SDS011;4587;51.434;6.788;2023-06-14T06:54:02;3.70;;;2.60;;
9102;SDS011;4587;51.434;6.788;2023-06-14T06:56:28;7.05;;;2.60;;
9102;SDS011;4587;51.434;6.788;2023-06-14T06:58:54;6.07;;;2.55;;
9102;SDS011;4587;51.434;6.788;2023-06-14T07:01:19;5.88;;;2.45;;
9102;SDS011;4587;51.434;6.788;2023-06-14T07:03:46;8.63;;;2.30;;
9102;SDS011;4587;51.434;6.788;2023-06-14T07:06:12;4.38;;;2.83;;
9102;SDS011;4587;51.434;6.788;2023-06-14T07:08:38;3.90;;;2.22;;
9102;SDS011;4587;51.434;6.788;2023-06-14T07:11:04;7.03;;;2.28;;
9102;SDS011;4587;51.434;6.788;2023-06-14T07:13:30;6.93;;;2.00;;
9102;SDS011;4587;51.434;6.788;2023-06-14T07:15:57;3.63;;;2.22;;
9102;SDS011;4587;51.434;6.788;2023-06-14T07:18:23;2.90;;;1.60;;
9102;SDS011;4587;51.434;6.788;2023-06-14T07:20:49;5.93;;;1.80;;
9102;SDS011;4587;51.434;6.788;2023-06-14T07:23:15;7.78;;;2.17;;
9102;SDS011;4587;51.434;6.788;2023-06-14T07:25:41;7.35;;;1.80;;
9102;SDS011;4587;51.434;6.788;2023-06-14T07:28:06;6.78;;;2.30;;
9102;SDS011;4587;51.434;6.788;2023-06-14T07:30:32;6.70;;;1.95;;
9102;SDS011;4587;51.434;6.788;2023-06-14T07:32:58;2.88;;;1.88;;
9102;SDS011;4587;51.434;6.788;2023-06-14T07:35:23;4.28;;;1.80;;
9102;SDS011;4587;51.434;6.788;2023-06-14T07:37:49;3.38;;;1.55;;
9102;SDS011;4587;51.434;6.788;2023-06-14T07:40:14;2.35;;;1.90;;
9102;SDS011;4587;51.434;6.788;2023-06-14T07:42:40;7.18;;;1.80;;
9102;SDS011;4587;51.434;6.788;2023-06-14T07:45:07;2.47;;;1.60;;
9102;SDS011;4587;51.434;6.788;2023-06-14T07:47:33;5.43;;;1.65;;
9102;SDS011;4587;51.434;6.788;2023-06-14T07:49:59;4.35;;;1.90;;
9102;SDS011;4587;51.434;6.788;2023-06-14T07:52:25;5.55;;;1.83;;
9102;SDS011;4587;51.434;6.788;2023-06-14T07:54:50;2.40;;;1.70;;
9102;SDS011;4587;51.434;6.788;2023-06-14T07:57:16;2.20;;;1.60;;
9102;SDS011;4587;51.434;6.788;2023-06-14T07:59:41;4.50;;;1.58;;
9102;SDS011;4587;51.434;6.788;2023-06-14T08:02:07;5.50;;;1.77;;
9102;SDS011;4587;51.434;6.788;2023-06-14T08:04:33;3.10;;;1.80;;
9102;SDS011;4587;51.434;6.788;2023-06-14T08:06:59;6.18;;;1.83;;
9102;SDS011;4587;51.434;6.788;2023-06-14T08:09:24;5.20;;;1.77;;
9102;SDS011;4587;51.434;6.788;2023-06-14T08:11:52;5.85;;;1.70;;
9102;SDS011;4587;51.434;6.788;2023-06-14T08:14:18;1.90;;;1.50;;
9102;SDS011;4587;51.434;6.788;2023-06-14T08:16:43;2.28;;;1.90;;
9102;SDS011;4587;51.434;6.788;2023-06-14T08:19:09;2.88;;;1.80;;
9102;SDS011;4587;51.434;6.788;2023-06-14T08:21:34;4.47;;;1.75;;
9102;SDS011;4587;51.434;6.788;2023-06-14T08:24:01;4.57;;;1.92;;
9102;SDS011;4587;51.434;6.788;2023-06-14T08:26:27;2.75;;;1.88;;
9102;SDS011;4587;51.434;6.788;2023-06-14T08:28:56;1.98;;;1.80;;
9102;SDS011;4587;51.434;6.788;2023-06-14T08:31:22;3.60;;;1.90;;
9102;SDS011;4587;51.434;6.788;2023-06-14T08:33:49;3.83;;;1.83;;
9102;SDS011;4587;51.434;6.788;2023-06-14T08:36:14;7.00;;;1.98;;
9102;SDS011;4587;51.434;6.788;2023-06-14T08:38:40;6.95;;;2.08;;
9102;SDS011;4587;51.434;6.788;2023-06-14T08:41:05;5.80;;;2.05;;
9102;SDS011;4587;51.434;6.788;2023-06-14T08:43:31;4.10;;;2.00;;
9102;SDS011;4587;51.434;6.788;2023-06-14T08:45:58;6.30;;;2.08;;
9102;SDS011;4587;51.434;6.788;2023-06-14T08:48:26;3.00;;;1.92;;
9102;SDS011;4587;51.434;6.788;2023-06-14T08:50:53;5.88;;;1.90;;
9102;SDS011;4587;51.434;6.788;2023-06-14T08:53:26;8.85;;;2.10;;
9102;SDS011;4587;51.434;6.788;2023-06-14T08:55:53;4.10;;;1.70;;
9102;SDS011;4587;51.434;6.788;2023-06-14T08:58:20;2.85;;;1.98;;
9102;SDS011;4587;51.434;6.788;2023-06-14T09:00:49;4.35;;;1.70;;
9102;SDS011;4587;51.434;6.788;2023-06-14T09:03:17;3.10;;;1.83;;
9102;SDS011;4587;51.434;6.788;2023-06-14T09:05:45;10.43;;;2.30;;
9102;SDS011;4587;51.434;6.788;2023-06-14T09:08:11;13.32;;;2.90;;
9102;SDS011;4587;51.434;6.788;2023-06-14T09:10:37;3.50;;;2.15;;
9102;SDS011;4587;51.434;6.788;2023-06-14T09:13:05;6.07;;;2.10;;
9102;SDS011;4587;51.434;6.788;2023-06-14T09:15:31;2.00;;;1.80;;
9102;SDS011;4587;51.434;6.788;2023-06-14T09:17:57;5.47;;;2.00;;
9102;SDS011;4587;51.434;6.788;2023-06-14T09:20:25;6.05;;;2.10;;
9102;SDS011;4587;51.434;6.788;2023-06-14T09:22:51;6.47;;;1.63;;
9102;SDS011;4587;51.434;6.788;2023-06-14T09:25:18;6.45;;;2.05;;
9102;SDS011;4587;51.434;6.788;2023-06-14T09:27:45;5.35;;;1.90;;
9102;SDS011;4587;51.434;6.788;2023-06-14T09:30:11;1.95;;;1.70;;
9102;SDS011;4587;51.434;6.788;2023-06-14T09:32:38;3.85;;;1.95;;
9102;SDS011;4587;51.434;6.788;2023-06-14T09:35:08;27.50;;;3.05;;
9102;SDS011;4587;51.434;6.788;2023-06-14T09:37:34;4.90;;;1.80;;
9102;SDS011;4587;51.434;6.788;2023-06-14T09:40:00;9.05;;;2.10;;
9102;SDS011;4587;51.434;6.788;2023-06-14T09:42:28;3.53;;;1.55;;
9102;SDS011;4587;51.434;6.788;2023-06-14T09:44:55;4.70;;;1.60;;
9102;SDS011;4587;51.434;6.788;2023-06-14T09:47:22;4.10;;;1.42;;
9102;SDS011;4587;51.434;6.788;2023-06-14T09:49:48;1.52;;;1.40;;
9102;SDS011;4587;51.434;6.788;2023-06-14T09:52:15;4.78;;;1.38;;
9102;SDS011;4587;51.434;6.788;2023-06-14T09:54:43;7.45;;;1.70;;
9102;SDS011;4587;51.434;6.788;2023-06-14T09:57:16;4.18;;;1.20;;
9102;SDS011;4587;51.434;6.788;2023-06-14T09:59:46;2.20;;;1.30;;
9102;SDS011;4587;51.434;6.788;2023-06-14T10:04:50;2.85;;;1.40;;
9102;SDS011;4587;51.434;6.788;2023-06-14T10:07:23;8.63;;;1.30;;
9102;SDS011;4587;51.434;6.788;2023-06-14T10:09:55;2.30;;;1.52;;
9102;SDS011;4587;51.434;6.788;2023-06-14T10:12:21;5.40;;;1.45;;
9102;SDS011;4587;51.434;6.788;2023-06-14T10:14:51;5.18;;;1.50;;
9102;SDS011;4587;51.434;6.788;2023-06-14T10:17:22;4.10;;;1.38;;
9102;SDS011;4587;51.434;6.788;2023-06-14T10:19:52;3.15;;;1.23;;
9102;SDS011;4587;51.434;6.788;2023-06-14T10:22:47;3.58;;;1.35;;
9102;SDS011;4587;51.434;6.788;2023-06-14T10:25:26;2.55;;;1.20;;
9102;SDS011;4587;51.434;6.788;2023-06-14T10:27:56;2.78;;;1.20;;
9102;SDS011;4587;51.434;6.788;2023-06-14T10:30:28;3.30;;;1.30;;
9102;SDS011;4587;51.434;6.788;2023-06-14T10:33:12;2.05;;;1.30;;
9102;SDS011;4587;51.434;6.788;2023-06-14T10:35:40;4.25;;;1.50;;
9102;SDS011;4587;51.434;6.788;2023-06-14T10:38:07;2.08;;;1.00;;
9102;SDS011;4587;51.434;6.788;2023-06-14T10:40:36;3.55;;;1.00;;
9102;SDS011;4587;51.434;6.788;2023-06-14T10:43:22;1.85;;;1.15;;
9102;SDS011;4587;51.434;6.788;2023-06-14T10:48:56;7.30;;;1.20;;
9102;SDS011;4587;51.434;6.788;2023-06-14T10:51:22;2.27;;;0.80;;
9102;SDS011;4587;51.434;6.788;2023-06-14T10:53:48;2.65;;;0.88;;
9102;SDS011;4587;51.434;6.788;2023-06-14T10:56:30;4.53;;;0.90;;
9102;SDS011;4587;51.434;6.788;2023-06-14T10:58:56;4.10;;;1.00;;
9102;SDS011;4587;51.434;6.788;2023-06-14T11:01:36;2.97;;;0.80;;
9102;SDS011;4587;51.434;6.788;2023-06-14T11:04:07;2.50;;;0.90;;
9102;SDS011;4587;51.434;6.788;2023-06-14T11:06:48;5.35;;;1.30;;
9102;SDS011;4587;51.434;6.788;2023-06-14T11:09:38;1.75;;;1.00;;
9102;SDS011;4587;51.434;6.788;2023-06-14T11:12:16;3.35;;;1.00;;
9102;SDS011;4587;51.434;6.788;2023-06-14T11:14:45;3.10;;;1.20;;
9102;SDS011;4587;51.434;6.788;2023-06-14T11:17:12;2.53;;;0.90;;
9102;SDS011;4587;51.434;6.788;2023-06-14T11:19:38;3.42;;;1.10;;
9102;SDS011;4587;51.434;6.788;2023-06-14T11:22:03;1.27;;;0.90;;
9102;SDS011;4587;51.434;6.788;2023-06-14T11:24:29;3.67;;;1.02;;
9102;SDS011;4587;51.434;6.788;2023-06-14T11:26:57;2.22;;;1.10;;
9102;SDS011;4587;51.434;6.788;2023-06-14T11:29:22;2.35;;;1.10;;
9102;SDS011;4587;51.434;6.788;2023-06-14T11:31:48;2.67;;;1.10;;
9102;SDS011;4587;51.434;6.788;2023-06-14T11:34:14;4.45;;;1.42;;
9102;SDS011;4587;51.434;6.788;2023-06-14T11:36:40;5.57;;;1.40;;
9102;SDS011;4587;51.434;6.788;2023-06-14T11:39:06;4.28;;;1.63;;
9102;SDS011;4587;51.434;6.788;2023-06-14T11:41:37;3.53;;;1.05;;
9102;SDS011;4587;51.434;6.788;2023-06-14T11:44:04;2.58;;;1.20;;
9102;SDS011;4587;51.434;6.788;2023-06-14T11:46:31;3.22;;;1.20;;
9102;SDS011;4587;51.434;6.788;2023-06-14T11:48:56;6.10;;;1.40;;
9102;SDS011;4587;51.434;6.788;2023-06-14T11:51:22;2.20;;;1.23;;
9102;SDS011;4587;51.434;6.788;2023-06-14T11:53:48;4.18;;;1.20;;
9102;SDS011;4587;51.434;6.788;2023-06-14T11:56:14;2.00;;;1.10;;
9102;SDS011;4587;51.434;6.788;2023-06-14T11:58:42;5.53;;;1.30;;
9102;SDS011;4587;51.434;6.788;2023-06-14T12:01:08;1.97;;;1.23;;
9102;SDS011;4587;51.434;6.788;2023-06-14T12:03:34;4.10;;;1.30;;
9102;SDS011;4587;51.434;6.788;2023-06-14T12:06:07;2.50;;;1.20;;
9102;SDS011;4587;51.434;6.788;2023-06-14T12:08:34;5.22;;;1.27;;
9102;SDS011;4587;51.434;6.788;2023-06-14T12:11:10;1.80;;;1.20;;
9102;SDS011;4587;51.434;6.788;2023-06-14T12:13:40;2.13;;;1.00;;
9102;SDS011;4587;51.434;6.788;2023-06-14T12:16:07;5.55;;;1.20;;
9102;SDS011;4587;51.434;6.788;2023-06-14T12:18:34;2.77;;;1.17;;
9102;SDS011;4587;51.434;6.788;2023-06-14T12:21:01;5.27;;;1.20;;
9102;SDS011;4587;51.434;6.788;2023-06-14T12:23:39;3.25;;;1.20;;
9102;SDS011;4587;51.434;6.788;2023-06-14T12:26:05;5.35;;;1.30;;
9102;SDS011;4587;51.434;6.788;2023-06-14T12:28:31;4.13;;;1.33;;
9102;SDS011;4587;51.434;6.788;2023-06-14T12:30:56;2.90;;;1.23;;
9102;SDS011;4587;51.434;6.788;2023-06-14T12:33:23;5.23;;;1.30;;
9102;SDS011;4587;51.434;6.788;2023-06-14T12:35:50;3.55;;;1.33;;
9102;SDS011;4587;51.434;6.788;2023-06-14T12:38:16;4.53;;;1.50;;
9102;SDS011;4587;51.434;6.788;2023-06-14T12:40:42;4.67;;;1.37;;
9102;SDS011;4587;51.434;6.788;2023-06-14T12:43:07;6.93;;;1.60;;
9102;SDS011;4587;51.434;6.788;2023-06-14T12:45:33;3.57;;;1.27;;
9102;SDS011;4587;51.434;6.788;2023-06-14T12:47:59;4.20;;;1.40;;
9102;SDS011;4587;51.434;6.788;2023-06-14T12:50:24;3.43;;;1.60;;
9102;SDS011;4587;51.434;6.788;2023-06-14T12:52:50;6.25;;;1.70;;
9102;SDS011;4587;51.434;6.788;2023-06-14T12:55:15;3.55;;;1.63;;
9102;SDS011;4587;51.434;6.788;2023-06-14T12:57:41;2.77;;;1.50;;
9102;SDS011;4587;51.434;6.788;2023-06-14T13:00:07;4.75;;;1.58;;
9102;SDS011;4587;51.434;6.788;2023-06-14T13:02:33;9.68;;;1.48;;
9102;SDS011;4587;51.434;6.788;2023-06-14T13:04:59;3.53;;;1.60;;
9102;SDS011;4587;51.434;6.788;2023-06-14T13:07:25;5.47;;;1.50;;
9102;SDS011;4587;51.434;6.788;2023-06-14T13:09:51;2.95;;;1.50;;
9102;SDS011;4587;51.434;6.788;2023-06-14T13:12:16;5.80;;;1.67;;
9102;SDS011;4587;51.434;6.788;2023-06-14T13:14:42;5.93;;;2.00;;
9102;SDS011;4587;51.434;6.788;2023-06-14T13:17:08;2.80;;;1.67;;
9102;SDS011;4587;51.434;6.788;2023-06-14T13:19:34;4.85;;;2.00;;
9102;SDS011;4587;51.434;6.788;2023-06-14T13:22:00;10.13;;;1.80;;
9102;SDS011;4587;51.434;6.788;2023-06-14T13:24:26;5.55;;;1.95;;
9102;SDS011;4587;51.434;6.788;2023-06-14T13:26:51;3.08;;;1.90;;
9102;SDS011;4587;51.434;6.788;2023-06-14T13:29:17;4.20;;;1.90;;
9102;SDS011;4587;51.434;6.788;2023-06-14T13:31:43;4.03;;;1.90;;
9102;SDS011;4587;51.434;6.788;2023-06-14T13:34:08;2.37;;;1.60;;
9102;SDS011;4587;51.434;6.788;2023-06-14T13:36:34;4.68;;;1.77;;
9102;SDS011;4587;51.434;6.788;2023-06-14T13:38:59;3.10;;;1.60;;
9102;SDS011;4587;51.434;6.788;2023-06-14T13:41:25;4.00;;;1.98;;
9102;SDS011;4587;51.434;6.788;2023-06-14T13:43:56;4.30;;;1.97;;
9102;SDS011;4587;51.434;6.788;2023-06-14T13:46:23;4.75;;;2.17;;
9102;SDS011;4587;51.434;6.788;2023-06-14T13:48:48;5.10;;;2.60;;
9102;SDS011;4587;51.434;6.788;2023-06-14T13:51:14;3.38;;;2.00;;
9102;SDS011;4587;51.434;6.788;2023-06-14T13:53:40;4.50;;;1.70;;
9102;SDS011;4587;51.434;6.788;2023-06-14T13:56:05;4.55;;;1.80;;
9102;SDS011;4587;51.434;6.788;2023-06-14T13:58:31;1.90;;;1.60;;
9102;SDS011;4587;51.434;6.788;2023-06-14T14:00:57;2.17;;;1.77;;
9102;SDS011;4587;51.434;6.788;2023-06-14T14:03:24;3.50;;;2.10;;
9102;SDS011;4587;51.434;6.788;2023-06-14T14:05:50;2.13;;;1.73;;
9102;SDS011;4587;51.434;6.788;2023-06-14T14:08:15;2.40;;;1.90;;
9102;SDS011;4587;51.434;6.788;2023-06-14T14:10:41;4.90;;;1.73;;
9102;SDS011;4587;51.434;6.788;2023-06-14T14:13:06;4.57;;;1.75;;
9102;SDS011;4587;51.434;6.788;2023-06-14T14:15:32;4.97;;;1.83;;
9102;SDS011;4587;51.434;6.788;2023-06-14T14:17:59;4.10;;;1.67;;
9102;SDS011;4587;51.434;6.788;2023-06-14T14:20:25;3.60;;;1.70;;
9102;SDS011;4587;51.434;6.788;2023-06-14T14:22:51;2.17;;;1.67;;
9102;SDS011;4587;51.434;6.788;2023-06-14T14:25:16;3.85;;;1.95;;
9102;SDS011;4587;51.434;6.788;2023-06-14T14:27:42;1.60;;;1.50;;
9102;SDS011;4587;51.434;6.788;2023-06-14T14:30:07;3.65;;;1.80;;
9102;SDS011;4587;51.434;6.788;2023-06-14T14:32:33;4.20;;;1.80;;
9102;SDS011;4587;51.434;6.788;2023-06-14T14:34:59;3.15;;;1.85;;
9102;SDS011;4587;51.434;6.788;2023-06-14T14:37:24;4.13;;;1.70;;
9102;SDS011;4587;51.434;6.788;2023-06-14T14:39:50;2.55;;;1.80;;
9102;SDS011;4587;51.434;6.788;2023-06-14T14:42:16;4.97;;;2.15;;
9102;SDS011;4587;51.434;6.788;2023-06-14T14:44:41;2.92;;;1.90;;
9102;SDS011;4587;51.434;6.788;2023-06-14T14:47:07;3.15;;;1.60;;
9102;SDS011;4587;51.434;6.788;2023-06-14T14:49:33;4.18;;;2.08;;
9102;SDS011;4587;51.434;6.788;2023-06-14T14:51:58;3.43;;;1.83;;
9102;SDS011;4587;51.434;6.788;2023-06-14T14:54:24;4.32;;;1.90;;
9102;SDS011;4587;51.434;6.788;2023-06-14T14:56:50;2.50;;;2.00;;
9102;SDS011;4587;51.434;6.788;2023-06-14T14:59:16;3.03;;;2.08;;
9102;SDS011;4587;51.434;6.788;2023-06-14T15:01:42;4.28;;;1.83;;
9102;SDS011;4587;51.434;6.788;2023-06-14T15:04:08;3.72;;;2.13;;
9102;SDS011;4587;51.434;6.788;2023-06-14T15:06:33;3.40;;;1.83;;
9102;SDS011;4587;51.434;6.788;2023-06-14T15:09:00;4.35;;;1.92;;
9102;SDS011;4587;51.434;6.788;2023-06-14T15:11:26;4.10;;;1.90;;
9102;SDS011;4587;51.434;6.788;2023-06-14T15:13:52;5.53;;;2.03;;
9102;SDS011;4587;51.434;6.788;2023-06-14T15:16:17;2.50;;;1.90;;
9102;SDS011;4587;51.434;6.788;2023-06-14T15:18:43;9.05;;;1.92;;
9102;SDS011;4587;51.434;6.788;2023-06-14T15:21:09;3.17;;;1.90;;
9102;SDS011;4587;51.434;6.788;2023-06-14T15:23:34;2.88;;;2.00;;